Austin, Texas
Traffic Map
Current Weather Conditions
Austin, Texas
Clear
Clear
25°
Feels Like: 25°
Wind Chill: 25° Ceiling: Unl
Heat Index: 25° Visibility: 10mi
Dew Point: Wind: 9mph
Humidity: 22% Direction: 280° (W)
Pressure: 29.89in Gusts: 21mph
Raw Report DataKATT 302251Z AUTO 28008G18KT 260V330 10SM CLR 25/02 A2989 RMK AO2 SLP115 T02500017
Traffic Incident Summary
Active as of:
Severity:
Category:
InformationThere was an issue retrieving the traffic information for this location. Please try a different location or try again shortly.
Advertisements
Track Severe Weather on mobile